createdAt,value
2022-07-27T00:04:51.822Z,10.90
2022-07-27T00:16:52.254Z,10.00
2022-07-27T00:28:52.680Z,9.30
2022-07-27T00:40:53.127Z,9.70
2022-07-27T00:52:53.559Z,9.00
2022-07-27T01:04:57.051Z,9.80
2022-07-27T01:16:54.454Z,12.80
2022-07-27T01:28:54.926Z,10.80
2022-07-27T01:40:55.413Z,11.00
2022-07-27T01:52:55.833Z,11.20
2022-07-27T02:04:56.357Z,9.30
2022-07-27T02:16:56.765Z,11.10
2022-07-27T02:28:57.244Z,11.30
2022-07-27T02:40:57.662Z,10.80
2022-07-27T02:52:58.134Z,10.40
2022-07-27T03:04:58.570Z,11.10
2022-07-27T03:16:59.050Z,10.60
2022-07-27T03:28:59.501Z,9.90
2022-07-27T03:40:59.913Z,9.50
2022-07-27T03:53:00.355Z,10.10
2022-07-27T04:05:00.853Z,10.30
2022-07-27T04:17:01.417Z,9.80
2022-07-27T04:29:01.764Z,10.50
2022-07-27T04:41:02.223Z,8.10
2022-07-27T04:53:02.694Z,6.90
2022-07-27T05:05:03.122Z,6.50
2022-07-27T05:17:05.109Z,5.80
2022-07-27T05:29:04.005Z,5.80
2022-07-27T05:41:04.527Z,4.90
2022-07-27T05:53:04.938Z,4.90
2022-07-27T06:05:05.384Z,5.00
2022-07-27T06:17:05.859Z,4.50
2022-07-27T06:29:09.940Z,4.20
2022-07-27T06:41:06.766Z,4.10
2022-07-27T06:53:07.208Z,4.10
2022-07-27T07:05:07.649Z,9.70
2022-07-27T07:17:08.118Z,3.90
2022-07-27T07:29:08.778Z,4.60
2022-07-27T07:41:09.052Z,3.00
2022-07-27T07:53:09.527Z,3.60
2022-07-27T08:05:09.955Z,3.60
2022-07-27T08:17:10.365Z,3.60
2022-07-27T08:29:13.815Z,3.90
2022-07-27T08:41:11.328Z,3.60
2022-07-27T08:53:11.793Z,3.00
2022-07-27T09:05:12.230Z,3.00
2022-07-27T09:17:47.185Z,2.90
2022-07-27T09:29:13.354Z,3.20
2022-07-27T09:41:13.613Z,3.90
2022-07-27T09:53:41.528Z,3.50
2022-07-27T10:05:14.602Z,3.60
2022-07-27T10:17:14.960Z,3.10
2022-07-27T10:29:15.428Z,3.10
2022-07-27T10:41:15.888Z,2.80
2022-07-27T10:53:16.324Z,2.60
2022-07-27T11:17:50.823Z,2.80
2022-07-27T11:29:17.702Z,2.70
2022-07-27T11:41:29.192Z,2.60
2022-07-27T11:53:18.623Z,2.70
2022-07-27T12:05:19.308Z,3.20
2022-07-27T12:17:19.651Z,3.20
2022-07-27T12:29:19.991Z,3.40
2022-07-27T12:41:20.445Z,3.90
2022-07-27T12:53:20.927Z,4.30
2022-07-27T13:09:12.626Z,5.30
2022-07-27T13:21:12.725Z,6.80
2022-07-27T13:33:13.151Z,5.80
2022-07-27T13:45:13.624Z,6.30
2022-07-27T13:57:14.097Z,7.10
2022-07-27T14:09:17.736Z,7.40
2022-07-27T14:21:15.044Z,5.60
2022-07-27T14:33:15.455Z,5.60
2022-07-27T14:45:15.888Z,5.60
2022-07-27T14:57:17.413Z,5.00
2022-07-27T15:09:17.256Z,4.50
2022-07-27T15:21:17.286Z,6.10
2022-07-27T15:33:17.725Z,6.60
2022-07-27T15:45:18.201Z,6.80
2022-07-27T15:57:18.650Z,6.50
2022-07-27T16:09:19.083Z,6.40
2022-07-27T16:21:19.519Z,18.00
2022-07-27T16:33:20.009Z,8.40
2022-07-27T16:45:20.476Z,10.00
2022-07-27T16:57:20.866Z,8.00
2022-07-27T17:09:21.373Z,8.20
2022-07-27T17:21:21.806Z,8.60
2022-07-27T17:33:22.288Z,9.40
2022-07-27T17:45:22.736Z,9.20
2022-07-27T17:57:23.181Z,10.60
2022-07-27T18:09:23.640Z,9.80
2022-07-27T18:21:24.119Z,10.00
2022-07-27T18:33:24.576Z,8.70
2022-07-27T18:45:34.471Z,8.40
2022-07-27T18:57:25.411Z,8.60
2022-07-27T19:09:25.963Z,8.70
2022-07-27T19:21:26.379Z,8.60
2022-07-27T19:33:26.814Z,8.20
2022-07-27T19:45:27.877Z,8.50
2022-07-27T19:57:27.763Z,8.50
2022-07-27T20:09:28.189Z,8.70
2022-07-27T20:21:28.651Z,9.10
2022-07-27T20:33:32.809Z,9.20
2022-07-27T20:45:29.592Z,9.60
2022-07-27T20:57:30.010Z,9.20
2022-07-27T21:09:30.447Z,9.30
2022-07-27T21:21:30.908Z,10.60
2022-07-27T21:33:33.777Z,10.30
2022-07-27T21:45:31.871Z,10.70
2022-07-27T21:57:32.254Z,11.40
2022-07-27T22:09:32.715Z,11.40
2022-07-27T22:21:33.185Z,11.60
2022-07-27T22:33:33.594Z,11.60
2022-07-27T22:45:34.131Z,11.50
2022-07-27T22:57:34.528Z,12.40
2022-07-27T23:09:35.036Z,12.60
2022-07-27T23:21:35.457Z,14.60
2022-07-27T23:33:35.918Z,11.90
2022-07-27T23:45:36.363Z,12.10
2022-07-27T23:57:36.840Z,11.50
